Time;durP1;ratioP1;P1;durP2;ratioP2;P2;SDS_P1;SDS_P2;PMS_P1;PMS_P2;Temp;Humidity;BMP_temperature;BMP_pressure;BME280_temperature;BME280_humidity;BME280_pressure;Samples;Min_cycle;Max_cycle;Signal;HPM_P1;HPM_P2
2023/03/30 00:02:22;;;;;;;10.65;5.95;;;15.80;99.90;;;16.17;70.11;100343.22;4992208;28;20066;-70
2023/03/30 00:04:51;;;;;;;10.65;5.50;;;15.80;99.90;;;16.31;69.97;100349.84;4992392;28;20401;-70
2023/03/30 00:07:20;;;;;;;12.45;5.57;;;15.90;99.90;;;16.17;69.99;100343.22;4992062;28;20543;-70
2023/03/30 00:09:48;;;;;;;14.32;6.00;;;15.90;99.90;;;16.23;69.87;100353.66;4993115;28;20058;-69
2023/03/30 00:12:19;;;;;;;14.00;5.90;;;15.80;99.90;;;16.22;69.69;100351.03;4993622;28;20112;-70
2023/03/30 00:14:48;;;;;;;11.98;5.70;;;15.90;99.90;;;16.23;69.46;100352.78;4993105;28;20130;-70
2023/03/30 00:17:17;;;;;;;15.05;6.43;;;15.90;99.90;;;16.28;69.51;100356.16;4993236;28;20057;-70
2023/03/30 00:19:47;;;;;;;10.77;5.93;;;15.90;99.90;;;16.37;69.40;100357.63;4992973;28;20058;-70
2023/03/30 00:22:15;;;;;;;13.52;6.32;;;15.90;99.90;;;16.35;69.30;100362.16;4993378;28;20046;-70
2023/03/30 00:24:44;;;;;;;11.43;6.25;;;16.00;99.90;;;16.36;69.11;100364.75;4993412;28;20042;-71
2023/03/30 00:27:12;;;;;;;12.85;5.90;;;16.00;99.90;;;16.14;69.09;100339.78;4992759;28;20046;-70
2023/03/30 00:29:41;;;;;;;8.52;5.65;;;16.00;99.90;;;16.30;69.41;100358.78;4992423;28;20075;-70
2023/03/30 00:32:09;;;;;;;8.45;5.95;;;15.90;99.90;;;16.11;69.80;100359.44;4993351;28;20052;-70
2023/03/30 00:34:38;;;;;;;16.08;6.50;;;15.80;99.90;;;16.14;69.91;100348.63;4991936;28;20042;-70
2023/03/30 00:37:08;;;;;;;9.73;6.38;;;15.80;99.90;;;16.14;70.34;100356.63;4991682;28;20054;-70
2023/03/30 00:39:36;;;;;;;9.65;6.07;;;15.80;99.90;;;16.14;70.33;100350.47;4993452;28;20089;-70
2023/03/30 00:42:05;;;;;;;11.10;6.50;;;15.80;99.90;;;16.17;70.47;100345.00;4991611;28;20140;-70
2023/03/30 00:45:21;;;;;;;8.60;5.60;;;15.80;99.90;;;16.10;70.02;100348.81;4992902;28;20440;-70
2023/03/30 00:47:57;;;;;;;8.95;5.55;;;15.80;99.90;;;16.02;70.57;100342.88;4989538;28;20046;-70
2023/03/30 00:50:33;;;;;;;9.75;5.65;;;15.70;99.90;;;15.89;70.78;100352.22;4991590;28;20058;-70
2023/03/30 00:53:11;;;;;;;9.32;5.57;;;15.60;99.90;;;15.84;71.31;100354.16;4992943;28;20046;-70
2023/03/30 00:55:40;;;;;;;12.85;5.53;;;15.50;99.90;;;15.80;71.72;100339.19;4992916;28;20050;-70
2023/03/30 00:58:09;;;;;;;9.43;5.28;;;15.50;99.90;;;15.71;72.09;100337.72;4992990;28;20427;-70
2023/03/30 01:00:39;;;;;;;11.10;5.50;;;15.50;99.90;;;15.80;72.07;100339.19;4991780;28;20059;-70
2023/03/30 01:03:16;;;;;;;11.73;5.38;;;15.50;99.90;;;15.73;72.26;100325.22;4991679;28;20062;-70
2023/03/30 01:05:46;;;;;;;20.83;5.82;;;15.40;99.90;;;15.77;72.65;100324.19;4992956;28;20043;-70
2023/03/30 01:08:17;;;;;;;21.70;5.50;;;15.40;99.90;;;15.67;73.16;100320.09;4992784;28;20423;-70
2023/03/30 01:10:47;;;;;;;9.63;5.18;;;15.30;99.90;;;15.74;73.42;100321.59;4992885;28;20066;-70
2023/03/30 01:13:16;;;;;;;14.63;5.93;;;15.30;99.90;;;15.73;73.55;100308.34;4992617;28;20046;-70
2023/03/30 01:16:01;;;;;;;13.38;5.75;;;15.40;99.90;;;15.58;74.34;100276.88;4992830;28;20108;-70
2023/03/30 01:18:46;;;;;;;14.73;5.65;;;15.40;99.90;;;15.66;74.51;100317.47;4992636;28;20080;-70
2023/03/30 01:21:58;;;;;;;10.60;5.28;;;15.40;99.90;;;15.71;75.27;100318.19;4993019;28;20046;-70
2023/03/30 01:25:10;;;;;;;16.10;6.30;;;15.40;99.90;;;15.62;75.67;100286.50;4991866;28;20054;-70
2023/03/30 01:28:20;;;;;;;13.27;6.25;;;15.40;99.90;;;15.73;75.92;100298.56;4991569;28;20125;-70
2023/03/30 01:31:26;;;;;;;14.20;6.10;;;15.40;99.90;;;15.66;76.22;100264.16;4991362;28;20051;-70
2023/03/30 01:34:16;;;;;;;13.93;5.88;;;15.40;99.90;;;15.66;76.45;100286.34;4992706;28;20042;-70
2023/03/30 01:37:22;;;;;;;11.35;5.40;;;15.30;99.90;;;15.74;75.79;100268.28;4991741;28;20042;-70
2023/03/30 01:39:56;;;;;;;13.05;5.55;;;15.40;99.90;;;15.66;76.31;100270.34;5007698;28;20050;-70
2023/03/30 01:42:32;;;;;;;11.60;6.05;;;15.30;99.90;;;15.70;76.56;100273.78;4995861;28;20487;-70
2023/03/30 01:45:11;;;;;;;14.18;5.90;;;15.30;99.90;;;15.38;76.77;100248.19;4996254;28;20050;-70
2023/03/30 01:47:46;;;;;;;12.57;5.72;;;15.30;99.90;;;15.59;77.06;100278.59;4995955;28;20077;-70
2023/03/30 01:50:20;;;;;;;12.30;5.68;;;15.20;99.90;;;15.37;77.49;100257.97;4994716;28;20105;-70
2023/03/30 01:52:57;;;;;;;11.35;5.97;;;15.20;99.90;;;15.56;77.53;100295.59;4994723;28;20058;-70
2023/03/30 01:55:32;;;;;;;11.95;6.03;;;15.20;99.90;;;15.49;78.15;100298.47;4994596;28;20053;-70
2023/03/30 01:58:07;;;;;;;13.00;5.72;;;15.20;99.90;;;15.48;78.32;100291.44;4995870;28;20069;-70
2023/03/30 02:00:36;;;;;;;17.15;5.88;;;15.10;99.90;;;15.47;78.34;100300.34;4995616;28;20105;-70
2023/03/30 02:03:11;;;;;;;12.45;5.90;;;15.10;99.90;;;15.44;78.73;100287.13;4995840;28;20187;-70
2023/03/30 02:05:41;;;;;;;14.48;5.82;;;15.10;99.90;;;15.50;78.99;100297.59;4995483;28;20050;-70
2023/03/30 02:08:17;;;;;;;13.45;6.00;;;15.10;99.90;;;15.48;79.45;100302.09;4994282;28;20057;-70
2023/03/30 02:10:48;;;;;;;11.57;5.03;;;15.10;99.90;;;15.52;79.86;100293.06;4995691;28;20062;-71
2023/03/30 02:13:19;;;;;;;13.18;5.97;;;15.10;99.90;;;15.44;80.11;100293.34;4994323;28;20144;-70
2023/03/30 02:15:52;;;;;;;11.65;5.47;;;15.10;99.90;;;15.47;80.72;100290.53;4995443;28;20070;-70
2023/03/30 02:18:20;;;;;;;12.23;5.07;;;15.10;99.90;;;15.50;81.28;100308.25;4995493;28;20491;-70
2023/03/30 02:20:49;;;;;;;8.98;5.40;;;15.10;99.90;;;15.39;81.97;100292.56;4994095;28;20046;-70
2023/03/30 02:23:19;;;;;;;14.45;5.38;;;15.00;99.90;;;15.37;82.49;100284.63;4995249;28;20408;-70
2023/03/30 02:25:49;;;;;;;13.48;5.47;;;15.00;99.90;;;15.29;83.09;100275.16;4993999;28;20500;-70
2023/03/30 02:28:17;;;;;;;13.10;5.78;;;15.00;99.90;;;15.37;83.10;100259.75;4995244;28;20050;-70
2023/03/30 02:30:47;;;;;;;9.75;5.20;;;15.00;99.90;;;15.09;83.42;100222.53;4994889;28;20113;-70
2023/03/30 02:33:26;;;;;;;13.63;5.82;;;15.00;99.90;;;15.42;83.18;100276.53;4993979;28;20439;-70
2023/03/30 02:36:25;;;;;;;13.40;5.13;;;15.10;99.90;;;15.44;83.29;100274.69;4994432;28;20145;-70
2023/03/30 02:39:06;;;;;;;11.60;4.95;;;15.00;99.90;;;15.41;83.64;100276.53;4993448;28;20050;-70
2023/03/30 02:42:15;;;;;;;14.30;5.50;;;15.10;99.90;;;15.41;83.61;100279.22;4993664;28;20077;-70
2023/03/30 02:44:51;;;;;;;10.45;5.57;;;15.10;99.90;;;15.34;84.01;100275.88;4993675;28;20046;-68
2023/03/30 02:47:31;;;;;;;13.52;5.68;;;15.00;99.90;;;15.31;84.14;100278.66;4994911;28;20118;-68
2023/03/30 02:50:05;;;;;;;11.00;6.03;;;15.00;99.90;;;15.41;83.91;100269.41;4993701;28;20046;-68
2023/03/30 02:52:51;;;;;;;12.23;5.47;;;15.00;99.90;;;15.33;83.62;100264.31;4992775;28;20050;-68
2023/03/30 02:55:24;;;;;;;10.38;5.15;;;15.00;99.90;;;15.37;83.48;100273.97;4993418;28;20058;-68
2023/03/30 02:58:24;;;;;;;10.70;4.90;;;15.00;99.90;;;15.26;83.26;100267.25;4966502;28;20109;-68
2023/03/30 03:01:02;;;;;;;10.38;5.03;;;15.00;99.90;;;15.27;83.56;100272.53;4994612;28;20046;-68
2023/03/30 03:03:46;;;;;;;9.60;4.95;;;14.90;99.90;;;15.22;83.54;100255.81;4993242;28;20150;-68
2023/03/30 03:06:19;;;;;;;8.90;5.05;;;14.90;99.90;;;15.30;83.20;100260.91;4993221;28;20042;-68
2023/03/30 03:08:55;;;;;;;8.30;4.57;;;14.90;99.90;;;15.32;83.36;100259.94;4993146;28;20050;-70
2023/03/30 03:11:29;;;;;;;12.55;4.80;;;15.00;99.90;;;15.25;83.29;100265.53;4992746;28;20487;-70
2023/03/30 03:13:59;;;;;;;8.02;5.10;;;15.00;99.90;;;15.26;83.47;100252.13;4994358;28;20046;-68
2023/03/30 03:16:30;;;;;;;11.65;4.95;;;14.90;99.90;;;15.10;84.00;100261.56;4992982;28;20097;-68
2023/03/30 03:19:19;;;;;;;9.10;5.13;;;14.80;99.90;;;15.16;84.08;100260.47;4993460;28;20140;-68
2023/03/30 03:21:50;;;;;;;10.73;5.25;;;14.80;99.90;;;14.95;83.99;100215.91;4992584;28;20176;-68
2023/03/30 03:24:19;;;;;;;13.82;5.38;;;14.90;99.90;;;15.09;84.37;100259.81;4993142;28;20086;-68
2023/03/30 03:27:07;;;;;;;16.15;5.57;;;14.80;99.90;;;15.09;84.55;100253.63;4993918;28;20105;-68
2023/03/30 03:29:53;;;;;;;12.45;5.68;;;14.70;99.90;;;14.92;85.10;100234.66;4992500;28;20400;-68
2023/03/30 03:32:22;;;;;;;15.18;5.45;;;14.70;99.90;;;14.84;85.38;100244.69;4994103;28;20046;-68
2023/03/30 03:34:51;;;;;;;15.77;5.95;;;14.60;99.90;;;14.98;85.38;100250.44;4992981;28;20487;-68
2023/03/30 03:37:19;;;;;;;17.02;5.55;;;14.70;99.90;;;14.89;85.57;100232.94;4993001;28;20579;-68
2023/03/30 03:39:47;;;;;;;20.90;6.20;;;14.60;99.90;;;14.87;86.05;100242.78;4992926;28;20391;-68
2023/03/30 03:42:16;;;;;;;18.20;5.68;;;14.60;99.90;;;14.87;86.16;100249.88;4992917;28;20920;-71
2023/03/30 03:44:54;;;;;;;14.77;5.63;;;14.60;99.90;;;14.86;86.22;100251.69;4992832;28;20054;-70
2023/03/30 03:47:23;;;;;;;19.27;6.55;;;14.50;99.90;;;14.71;86.45;100264.63;4992859;28;20054;-70
2023/03/30 03:49:51;;;;;;;17.67;6.22;;;14.40;99.90;;;14.63;86.76;100259.53;4993637;28;20042;-70
2023/03/30 03:52:20;;;;;;;16.75;5.53;;;14.30;99.90;;;14.62;86.97;100235.59;4993572;28;20518;-70
2023/03/30 03:54:48;;;;;;;22.20;7.28;;;14.30;99.90;;;14.54;87.58;100241.16;4992229;28;20046;-70
2023/03/30 03:57:16;;;;;;;20.55;6.60;;;14.30;99.90;;;14.45;88.06;100230.81;4993763;28;20043;-70
2023/03/30 03:59:45;;;;;;;23.10;6.93;;;14.20;99.90;;;14.56;88.54;100244.66;4993781;28;20073;-70
2023/03/30 04:02:15;;;;;;;19.30;6.55;;;14.20;99.90;;;14.53;89.89;100244.75;4992681;28;20057;-70
2023/03/30 04:04:44;;;;;;;22.90;6.68;;;14.20;99.90;;;14.42;92.02;100236.19;4991596;28;20137;-70
2023/03/30 04:07:12;;;;;;;20.05;6.85;;;14.10;99.90;;;14.43;92.64;100245.94;4993468;28;20050;-70
2023/03/30 04:09:40;;;;;;;23.92;7.65;;;14.10;99.90;;;14.25;94.03;100252.66;4992575;28;20085;-70
2023/03/30 04:12:29;;;;;;;26.50;7.13;;;14.00;99.90;;;14.18;94.85;100237.78;4963226;28;20046;-70
2023/03/30 04:15:09;;;;;;;28.33;7.30;;;13.90;99.90;;;14.14;95.42;100227.28;4992149;28;20105;-70
2023/03/30 04:17:56;;;;;;;29.15;7.57;;;13.80;99.90;;;14.03;96.09;100235.56;4992142;28;20583;-71
2023/03/30 04:20:48;;;;;;;26.35;7.20;;;13.80;99.90;;;14.03;96.44;100248.00;4991960;28;20155;-70
2023/03/30 04:23:35;;;;;;;33.20;7.47;;;13.70;99.90;;;14.06;96.13;100246.13;4993317;28;20054;-70
2023/03/30 04:26:19;;;;;;;26.33;7.45;;;13.80;99.90;;;14.03;95.96;100243.53;4993041;28;20050;-70
2023/03/30 04:29:07;;;;;;;26.42;7.20;;;13.80;99.90;;;14.00;96.01;100224.13;4991784;28;20132;-70
2023/03/30 04:32:19;;;;;;;34.70;9.30;;;13.70;99.90;;;13.93;95.66;100246.50;4932905;29;20063;-70
2023/03/30 04:35:06;;;;;;;33.65;7.50;;;13.60;99.90;;;13.80;95.30;100222.03;4917224;29;20095;-70
2023/03/30 04:37:53;;;;;;;30.45;8.32;;;13.60;99.90;;;13.86;94.88;100223.69;4979471;28;20144;-70
2023/03/30 04:40:44;;;;;;;;;;;13.60;99.90;;;13.85;94.59;100233.44;4992912;28;20129;-70
2023/03/30 04:43:24;;;;;;;29.75;7.55;;;13.60;99.90;;;13.74;93.88;100234.66;4991931;28;19922;-71
2023/03/30 04:46:05;;;;;;;33.03;7.50;;;13.40;99.90;;;13.66;93.71;100232.19;4991591;28;20137;-70
2023/03/30 04:48:52;;;;;;;26.15;8.23;;;13.40;99.90;;;13.49;93.29;100208.72;4991550;28;20042;-70
2023/03/30 04:51:45;;;;;;;27.42;8.02;;;13.30;99.90;;;13.67;93.00;100225.97;4991601;28;20136;-70
2023/03/30 04:54:32;;;;;;;37.60;8.38;;;13.30;99.90;;;13.62;92.54;100227.00;4991456;28;20057;-70
2023/03/30 04:57:36;;;;;;;29.23;7.20;;;13.30;99.90;;;13.56;92.24;100209.44;4992414;28;20058;-70
2023/03/30 05:00:22;;;;;;;30.42;7.75;;;13.30;99.90;;;13.54;92.63;100220.13;4992819;28;20069;-70
2023/03/30 05:02:51;;;;;;;30.48;7.78;;;13.20;99.90;;;13.51;92.60;100214.88;4993076;28;20050;-71
2023/03/30 05:05:47;;;;;;;36.60;8.45;;;13.20;99.90;;;13.47;93.08;100221.19;4991383;28;20043;-70
2023/03/30 05:08:43;;;;;;;33.70;8.23;;;13.20;99.90;;;13.43;93.94;100219.50;4989325;28;20058;-70
2023/03/30 05:11:38;;;;;;;35.33;8.50;;;13.10;99.90;;;13.31;94.31;100219.84;4979387;28;20050;-70
2023/03/30 05:14:19;;;;;;;37.38;8.57;;;13.00;99.90;;;13.29;94.57;100221.69;4991505;28;20515;-70
2023/03/30 05:16:59;;;;;;;39.17;8.95;;;13.00;99.90;;;13.28;95.10;100222.56;4994214;28;20464;-70
2023/03/30 05:19:51;;;;;;;34.10;8.45;;;13.00;99.90;;;13.25;95.18;100212.03;4977216;28;20050;-70
2023/03/30 05:22:26;;;;;;;36.78;8.90;;;13.00;99.90;;;13.23;95.42;100228.91;4995149;28;20062;-70
2023/03/30 05:25:13;;;;;;;35.58;9.48;;;12.90;99.90;;;13.20;95.68;100232.50;4995159;28;20076;-70
2023/03/30 05:28:06;;;;;;;37.53;8.90;;;12.90;99.90;;;13.16;96.06;100219.38;4996422;28;20388;-70
2023/03/30 05:30:46;;;;;;;37.30;8.63;;;12.80;99.90;;;13.13;95.93;100209.69;4995035;28;20141;-70
2023/03/30 05:33:27;;;;;;;37.63;8.70;;;12.80;99.90;;;13.06;96.11;100236.44;4996317;28;20385;-70
2023/03/30 05:36:34;;;;;;;36.22;8.30;;;12.80;99.90;;;13.09;95.90;100236.34;4986044;28;20094;-70
2023/03/30 05:39:08;;;;;;;44.55;9.43;;;12.80;99.90;;;13.09;95.94;100250.50;4994716;28;20046;-70
2023/03/30 05:42:04;;;;;;;39.63;8.55;;;12.80;99.90;;;13.06;96.02;100241.75;4993612;28;20054;-70
2023/03/30 05:44:53;;;;;;;36.65;9.30;;;12.80;99.90;;;13.06;95.78;100229.34;4995488;28;20088;-70
2023/03/30 05:47:54;;;;;;;34.33;8.60;;;12.80;99.90;;;13.18;95.84;100254.72;4995644;28;20241;-70
2023/03/30 05:50:22;;;;;;;44.45;9.95;;;12.80;99.90;;;13.10;95.77;100257.56;4995993;28;20046;-70
2023/03/30 05:53:04;;;;;;;41.83;9.52;;;12.80;99.90;;;13.20;96.09;100258.22;4996288;28;20049;-70
2023/03/30 05:55:57;;;;;;;42.35;9.07;;;12.90;99.90;;;13.08;96.09;100245.25;4994555;28;20062;-66
2023/03/30 05:58:48;;;;;;;45.90;10.27;;;12.90;99.90;;;13.12;95.90;100271.69;4994406;28;20050;-71
2023/03/30 06:01:32;;;;;;;43.55;9.30;;;12.80;99.90;;;13.14;96.01;100269.84;4994779;28;20424;-72
2023/03/30 06:04:01;;;;;;;42.67;8.77;;;12.90;99.90;;;13.17;95.98;100258.28;4994668;28;20066;-71
2023/03/30 06:06:31;;;;;;;38.15;8.73;;;12.90;99.90;;;13.19;95.76;100270.63;4994278;28;20042;-71
2023/03/30 06:09:01;;;;;;;43.25;9.07;;;12.90;99.90;;;13.20;95.74;100272.34;4994383;28;20101;-71
2023/03/30 06:11:30;;;;;;;44.25;9.40;;;12.90;99.90;;;13.14;95.86;100269.84;4993691;28;20488;-71
2023/03/30 06:14:12;;;;;;;49.10;9.13;;;12.90;99.90;;;13.10;96.07;100305.38;4994223;28;20042;-73
2023/03/30 06:16:48;;;;;;;44.95;9.40;;;12.80;99.90;;;13.17;96.22;100274.22;4993891;28;20164;-71
2023/03/30 06:19:17;;;;;;;46.63;9.57;;;12.90;99.90;;;13.12;95.95;100284.09;4993927;28;20412;-71
2023/03/30 06:21:45;;;;;;;43.38;9.05;;;12.80;99.90;;;13.12;96.19;100277.00;4993980;28;20088;-71
2023/03/30 06:24:32;;;;;;;48.63;9.90;;;12.90;99.90;;;13.13;96.21;100284.03;4994269;28;20049;-70
2023/03/30 06:27:02;;;;;;;45.30;9.15;;;12.90;99.90;;;13.17;96.23;100283.06;4993312;28;20051;-71
2023/03/30 06:29:32;;;;;;;43.38;10.25;;;12.90;99.90;;;13.19;95.59;100280.34;4993693;28;20439;-68
2023/03/30 06:32:02;;;;;;;52.13;9.80;;;12.90;99.90;;;13.17;95.87;100284.84;4993725;28;20050;-69
2023/03/30 06:34:49;;;;;;;40.50;10.35;;;12.90;99.90;;;13.15;95.97;100298.16;4995018;28;20053;-70
2023/03/30 06:37:20;;;;;;;59.67;10.20;;;12.90;99.90;;;13.17;96.00;100290.16;4993932;28;20046;-69
2023/03/30 06:39:51;;;;;;;47.07;11.57;;;12.90;99.90;;;13.22;96.30;100309.50;4993808;28;20109;-69
2023/03/30 06:42:19;;;;;;;52.75;11.48;;;12.90;99.90;;;13.37;96.21;100296.72;4994850;28;20416;-69
2023/03/30 06:45:03;;;;;;;47.35;9.85;;;13.00;99.90;;;13.51;95.55;100315.84;4993790;28;20047;-70
2023/03/30 06:47:32;;;;;;;50.05;11.13;;;13.10;99.90;;;13.54;94.81;100306.91;4993404;28;20428;-69
2023/03/30 06:50:00;;;;;;;56.53;11.18;;;13.20;99.90;;;13.55;93.92;100296.25;4993593;28;20051;-70
2023/03/30 06:52:47;;;;;;;51.63;11.35;;;13.30;99.90;;;13.69;94.04;100310.97;4995287;28;20058;-66
2023/03/30 06:55:16;;;;;;;53.25;10.43;;;13.40;99.90;;;13.85;93.05;100307.88;4993765;28;20085;-70
2023/03/30 06:57:46;;;;;;;45.70;10.07;;;13.60;99.90;;;13.96;91.67;100304.91;4993546;28;20576;-70
2023/03/30 07:00:17;;;;;;;44.50;10.23;;;13.70;99.90;;;14.31;90.69;100312.81;4993456;28;20046;-72
2023/03/30 07:03:25;;;;;;;42.13;10.18;;;14.00;99.90;;;14.59;89.33;100312.91;4972885;28;20111;-71
2023/03/30 07:06:07;;;;;;;47.80;10.68;;;14.20;99.90;;;14.52;88.04;100333.47;4972769;28;20194;-71
2023/03/30 07:08:39;;;;;;;51.33;11.40;;;14.30;99.90;;;14.45;87.98;100340.78;4994056;28;20089;-68
2023/03/30 07:11:07;;;;;;;39.75;9.82;;;14.20;99.90;;;14.45;87.94;100335.47;4993160;28;20050;-70
2023/03/30 07:13:39;;;;;;;49.38;10.82;;;14.10;99.90;;;14.32;88.54;100331.38;4993374;28;20068;-69
2023/03/30 07:16:10;;;;;;;42.55;10.55;;;14.10;99.90;;;14.10;89.14;100332.88;4993195;28;20043;-69
2023/03/30 07:18:38;;;;;;;47.13;11.15;;;13.90;99.90;;;14.15;89.77;100332.78;4994489;28;20054;-72
2023/03/30 07:21:07;;;;;;;61.38;11.05;;;13.90;99.90;;;13.88;90.89;100344.16;4994028;28;20563;-64
2023/03/30 07:23:42;;;;;;;55.15;10.98;;;13.60;99.90;;;13.64;91.83;100334.13;4992965;28;20392;-71
2023/03/30 07:26:16;;;;;;;55.63;11.27;;;13.50;99.90;;;13.84;92.26;100361.09;4992994;28;20088;-70
2023/03/30 07:28:53;;;;;;;59.25;11.68;;;13.50;99.90;;;13.68;92.72;100346.44;4993204;28;20489;-71
2023/03/30 07:31:24;;;;;;;59.10;12.80;;;13.40;99.90;;;13.68;93.30;100352.63;4992958;28;20058;-70
2023/03/30 07:33:53;;;;;;;57.95;12.57;;;13.40;99.90;;;13.63;93.63;100348.34;4992767;28;20112;-71
2023/03/30 07:36:25;;;;;;;66.55;11.88;;;13.30;99.90;;;13.62;93.86;100363.41;4992729;28;20488;-70
2023/03/30 07:38:53;;;;;;;58.40;11.82;;;13.30;99.90;;;13.71;93.88;100357.84;4992542;28;20050;-71
2023/03/30 07:41:22;;;;;;;54.50;11.15;;;13.40;99.90;;;13.13;94.07;100286.69;4992626;28;20046;-71
2023/03/30 07:43:54;;;;;;;52.22;11.10;;;13.30;99.90;;;13.48;94.53;100371.72;4992929;28;20145;-71
2023/03/30 07:46:24;;;;;;;58.22;11.65;;;13.20;99.90;;;13.58;94.36;100357.31;4993827;28;20464;-70
2023/03/30 07:48:55;;;;;;;68.43;13.52;;;13.30;99.90;;;13.56;94.50;100366.22;4992566;28;20096;-71
2023/03/30 07:51:24;;;;;;;53.72;11.18;;;13.30;99.90;;;13.68;94.31;100368.56;4992585;28;20050;-72
2023/03/30 07:54:10;;;;;;;57.10;12.43;;;13.40;99.90;;;13.87;94.37;100374.28;4992628;28;20076;-70
2023/03/30 07:56:52;;;;;;;54.45;11.07;;;13.50;99.90;;;13.82;93.74;100366.41;4992620;28;20050;-69
2023/03/30 07:59:23;;;;;;;61.10;13.80;;;13.60;99.90;;;13.99;93.50;100376.63;4992562;28;20160;-69
2023/03/30 08:01:56;;;;;;;50.15;11.00;;;13.70;99.90;;;14.09;92.67;100380.81;4992458;28;20089;-68
2023/03/30 08:04:45;;;;;;;58.95;12.68;;;13.70;99.90;;;14.34;92.52;100376.59;4992958;28;20054;-69
2023/03/30 08:07:17;;;;;;;53.60;11.23;;;14.00;99.90;;;14.32;91.45;100397.91;4992399;28;20285;-70
2023/03/30 08:09:47;;;;;;;54.33;10.88;;;14.00;99.90;;;14.68;91.03;100398.69;4992222;28;20154;-70
2023/03/30 08:12:15;;;;;;;60.30;12.40;;;14.30;99.90;;;14.68;89.44;100398.69;4993629;28;20515;-69
2023/03/30 08:14:45;;;;;;;52.45;11.30;;;14.40;99.90;;;14.71;88.82;100393.25;4992529;28;20507;-72
2023/03/30 08:17:15;;;;;;;63.50;12.73;;;14.40;99.90;;;14.85;88.43;100377.75;4993648;28;20046;-70
2023/03/30 08:19:43;;;;;;;59.60;11.87;;;14.60;99.90;;;15.14;87.75;100384.84;4992029;28;20054;-70
2023/03/30 08:22:11;;;;;;;50.03;10.68;;;14.80;99.90;;;15.30;86.55;100392.34;4993291;28;20050;-69
2023/03/30 08:24:40;;;;;;;47.60;11.38;;;15.00;99.90;;;15.55;85.29;100399.59;4993179;28;20077;-70
2023/03/30 08:27:09;;;;;;;58.88;13.48;;;15.20;99.90;;;15.69;83.65;100384.03;4991760;28;20073;-70
2023/03/30 08:29:37;;;;;;;48.33;11.23;;;15.40;99.90;;;15.92;82.81;100392.13;4993218;28;20069;-70
2023/03/30 08:32:06;;;;;;;59.30;12.52;;;15.60;99.90;;;16.18;82.40;100411.66;4992822;28;20038;-70
2023/03/30 08:34:37;;;;;;;55.25;12.23;;;15.80;99.90;;;16.24;80.25;100402.56;4991710;28;20518;-70
2023/03/30 08:37:06;;;;;;;60.22;11.82;;;15.90;99.90;;;16.27;79.49;100406.00;4992928;28;20446;-70
2023/03/30 08:39:35;;;;;;;51.75;11.35;;;16.00;99.90;;;16.54;79.24;100404.19;4993039;28;20049;-70
2023/03/30 08:42:13;;;;;;;55.03;12.05;;;16.20;99.90;;;16.75;78.65;100408.75;4992739;28;20057;-70
2023/03/30 08:44:44;;;;;;;54.80;12.48;;;16.40;99.90;;;16.92;77.41;100425.00;4992953;28;20403;-69
2023/03/30 08:47:16;;;;;;;55.63;11.70;;;16.50;99.90;;;17.16;76.48;100428.56;4992662;28;20086;-69
2023/03/30 08:49:58;;;;;;;47.53;11.10;;;16.80;99.90;;;16.95;74.43;100440.06;4992570;28;20042;-69
2023/03/30 08:52:27;;;;;;;43.38;10.93;;;16.70;99.90;;;16.76;74.17;100426.50;4992563;28;20057;-69
2023/03/30 08:54:56;;;;;;;53.60;11.85;;;16.50;99.90;;;16.74;74.54;100432.84;4992864;28;20038;-69
2023/03/30 08:57:40;;;;;;;48.95;11.32;;;16.50;99.90;;;16.67;74.02;100425.97;4991510;28;20160;-69
2023/03/30 09:00:21;;;;;;;50.88;11.15;;;16.40;99.90;;;16.46;73.47;100418.69;4992540;28;20054;-70
2023/03/30 09:02:53;;;;;;;55.47;12.57;;;16.20;99.90;;;16.58;73.66;100428.97;4992669;28;20412;-70
2023/03/30 09:05:30;;;;;;;55.33;12.07;;;16.30;99.90;;;16.79;73.51;100438.88;4992608;28;20041;-67
2023/03/30 09:08:08;;;;;;;60.20;11.77;;;16.50;99.90;;;16.79;73.40;100434.41;4991649;28;20053;-67
2023/03/30 09:10:41;;;;;;;54.33;12.63;;;16.50;99.90;;;16.67;74.07;100429.50;4992836;28;20393;-67
2023/03/30 09:13:15;;;;;;;59.47;12.23;;;16.50;99.90;;;16.77;74.00;100436.28;4991577;28;20073;-67
2023/03/30 09:15:51;;;;;;;56.05;12.25;;;16.50;99.90;;;16.58;74.99;100451.22;4992661;28;20054;-67
2023/03/30 09:18:25;;;;;;;57.25;12.95;;;16.30;99.90;;;16.53;75.12;100447.81;4991567;28;20153;-67
2023/03/30 09:21:00;;;;;;;50.28;11.68;;;16.20;99.90;;;16.31;75.60;100437.91;4992621;28;20100;-67
2023/03/30 09:23:30;;;;;;;59.20;10.95;;;16.00;99.90;;;16.24;76.55;100453.25;4992769;28;20372;-68
2023/03/30 09:26:12;;;;;;;60.53;12.32;;;15.90;99.90;;;16.50;76.42;100431.91;4992490;28;20049;-68
2023/03/30 09:28:47;;;;;;;56.78;12.23;;;16.10;99.90;;;16.44;75.89;100437.44;4991261;28;20056;-68
2023/03/30 09:31:20;;;;;;;62.42;12.43;;;16.10;99.90;;;16.33;75.66;100447.63;4992345;28;20043;-67
2023/03/30 09:33:58;;;;;;;56.90;11.77;;;16.00;99.90;;;16.40;75.53;100448.25;4992458;28;20138;-68
2023/03/30 09:36:35;;;;;;;50.38;11.50;;;16.10;99.90;;;16.48;74.79;100447.13;4992576;28;20377;-68
2023/03/30 09:39:10;;;;;;;51.65;11.75;;;16.10;99.90;;;16.59;73.59;100447.59;4992612;28;20046;-69
2023/03/30 09:41:58;;;;;;;52.47;12.05;;;16.30;99.90;;;16.80;74.14;100462.84;4990817;28;20050;-69
2023/03/30 09:44:34;;;;;;;52.50;11.65;;;16.40;99.90;;;16.41;72.96;100370.81;4992184;28;20392;-69
2023/03/30 09:47:20;;;;;;;46.13;11.40;;;16.60;99.90;;;16.72;72.38;100422.22;4992116;28;20050;-68
2023/03/30 09:49:48;;;;;;;52.67;11.35;;;16.70;99.90;;;17.31;71.62;100472.53;4992425;28;20042;-67
2023/03/30 09:52:24;;;;;;;52.88;11.55;;;17.00;99.90;;;17.17;70.96;100466.84;4992105;28;20516;-68
2023/03/30 09:54:53;;;;;;;49.05;11.75;;;16.90;99.90;;;17.09;71.35;100443.94;4992775;28;20062;-68
2023/03/30 09:57:28;;;;;;;45.55;10.77;;;16.90;99.90;;;16.92;71.26;100469.53;4992640;28;20046;-68
2023/03/30 09:59:59;;;;;;;49.80;10.23;;;16.70;99.90;;;16.83;72.23;100481.47;4992278;28;20034;-67
2023/03/30 10:02:30;;;;;;;47.95;11.13;;;16.50;99.90;;;16.74;72.36;100463.06;4992735;28;20046;-65
2023/03/30 10:05:02;;;;;;;46.13;10.68;;;16.60;99.90;;;16.59;72.21;100476.97;4995828;28;20056;-65
2023/03/30 10:07:37;;;;;;;49.72;11.82;;;16.50;99.90;;;16.81;72.61;100499.34;4995690;28;20121;-64
2023/03/30 10:10:27;;;;;;;46.20;10.50;;;16.50;99.90;;;16.70;73.28;100497.97;4994009;28;20054;-66
2023/03/30 10:13:03;;;;;;;46.25;11.32;;;16.40;99.90;;;16.82;73.56;100485.03;4995554;28;20443;-66
2023/03/30 10:15:34;;;;;;;43.72;10.32;;;16.50;99.90;;;16.84;73.26;100491.19;4995780;28;20392;-66
2023/03/30 10:18:19;;;;;;;46.65;10.77;;;16.50;99.90;;;16.88;72.81;100508.00;4995530;28;20112;-64
2023/03/30 10:20:52;;;;;;;54.95;12.40;;;16.60;99.90;;;16.66;72.67;100405.53;4995340;28;20468;-65
2023/03/30 10:23:23;;;;;;;47.53;11.27;;;16.80;99.90;;;17.38;71.65;100512.34;4995449;28;20466;-64
2023/03/30 10:26:02;;;;;;;55.15;12.63;;;17.00;99.90;;;17.53;70.47;100509.13;4994028;28;20240;-64
2023/03/30 10:28:35;;;;;;;53.72;11.85;;;17.20;99.90;;;17.52;70.70;100501.16;4995432;28;20066;-64
2023/03/30 10:31:13;;;;;;;39.75;10.43;;;17.20;99.90;;;17.49;70.58;100502.16;4995310;28;20057;-64
2023/03/30 10:33:44;;;;;;;55.28;12.00;;;17.20;99.90;;;17.57;70.25;100517.91;4995196;28;20050;-64
2023/03/30 10:36:15;;;;;;;45.30;10.95;;;17.20;99.90;;;17.53;70.81;100508.25;4994925;28;20476;-65
2023/03/30 10:38:46;;;;;;;42.72;9.90;;;17.20;99.90;;;17.37;69.97;100499.91;4995036;28;20042;-65
2023/03/30 10:41:21;;;;;;;50.38;11.45;;;17.10;99.90;;;17.29;70.74;100527.84;4995340;28;20042;-67
2023/03/30 10:43:50;;;;;;;46.22;10.70;;;17.00;99.90;;;17.23;70.51;100499.56;4995302;28;20042;-66
2023/03/30 10:46:22;;;;;;;45.67;11.00;;;16.90;99.90;;;16.80;71.06;100512.75;4994881;28;20453;-65